Time;durP1;ratioP1;P1;durP2;ratioP2;P2;SDS_P1;SDS_P2;PMS_P1;PMS_P2;Temp;Humidity;BMP_temperature;BMP_pressure;BME280_temperature;BME280_humidity;BME280_pressure;Samples;Min_cycle;Max_cycle;Signal;HPM_P1;HPM_P2
2022/04/30 00:06:05;;;;;;;1999.90;999.90;;;;;;;12.99;54.79;101915.34;15810325;28;20131;-63
2022/04/30 00:13:38;;;;;;;1999.90;999.90;;;;;;;12.83;54.53;101914.94;15812108;28;20048;-62
2022/04/30 00:21:11;;;;;;;1999.90;999.90;;;;;;;12.84;54.44;101912.97;15811254;28;20052;-62
2022/04/30 00:28:44;;;;;;;;;;;;;;;12.89;54.27;101905.25;15810977;28;20152;-63
2022/04/30 00:36:18;;;;;;;1999.90;999.90;;;;;;;12.60;55.70;101900.09;15809998;28;19919;-62
2022/04/30 00:43:51;;;;;;;;;;;;;;;12.75;55.92;101898.06;15808416;28;20048;-62
2022/04/30 00:51:28;;;;;;;1999.90;999.90;;;;;;;12.66;55.71;101901.63;15791107;28;20449;-62
2022/04/30 00:59:03;;;;;;;1999.90;999.90;;;;;;;12.61;55.55;101898.97;15808299;28;20044;-62
2022/04/30 01:06:51;;;;;;;1999.90;999.90;;;;;;;12.56;56.41;101885.09;15805713;28;20040;-62
2022/04/30 01:14:28;;;;;;;1999.90;999.90;;;;;;;12.35;58.47;101881.13;15806281;28;20056;-62
2022/04/30 01:22:08;;;;;;;1999.90;999.90;;;;;;;12.23;57.90;101884.50;15805592;28;20074;-62
2022/04/30 01:29:42;;;;;;;1999.90;999.90;;;;;;;12.05;58.36;101880.72;15807173;28;20482;-62
2022/04/30 01:37:26;;;;;;;1999.90;999.90;;;;;;;11.93;58.85;101882.41;15813461;28;20028;-62
2022/04/30 01:45:00;;;;;;;1999.90;999.90;;;;;;;11.89;59.40;101884.19;15818008;28;20074;-62
2022/04/30 01:52:32;;;;;;;;;;;;;;;11.84;60.30;101880.34;15827203;28;20123;-62
2022/04/30 02:00:08;;;;;;;1999.90;999.90;;;;;;;11.63;60.62;101867.91;15811393;28;19920;-62
2022/04/30 02:07:50;;;;;;;1999.90;999.90;;;;;;;11.57;60.58;101867.22;15819579;28;20070;-62
2022/04/30 02:15:25;;;;;;;1999.90;999.90;;;;;;;11.46;60.41;101865.78;15815454;28;20040;-63
2022/04/30 02:22:58;;;;;;;1999.90;999.90;;;;;;;11.30;60.85;101858.00;15809482;28;20102;-62
2022/04/30 02:30:35;;;;;;;1999.90;999.90;;;;;;;11.24;60.96;101844.13;15810888;28;20101;-61
2022/04/30 02:38:10;;;;;;;1999.90;999.90;;;;;;;11.18;61.22;101844.56;15805243;28;20528;-62
2022/04/30 02:45:44;;;;;;;1999.90;999.90;;;;;;;11.15;61.41;101842.34;15804169;28;20083;-62
2022/04/30 02:53:17;;;;;;;1999.90;999.90;;;;;;;11.02;61.79;101835.63;15804984;28;20618;-62
2022/04/30 03:00:52;;;;;;;1999.90;999.90;;;;;;;10.96;62.60;101823.75;15787303;28;20451;-62
2022/04/30 03:08:30;;;;;;;1999.90;999.90;;;;;;;10.91;62.76;101835.00;15802429;28;20131;-62
2022/04/30 03:23:54;;;;;;;1999.90;999.90;;;;;;;10.81;63.48;101817.59;15784504;28;20072;-62
2022/04/30 03:31:29;;;;;;;1999.90;999.90;;;;;;;10.76;63.42;101824.13;15808865;28;20056;-61
2022/04/30 03:39:02;;;;;;;1999.90;999.90;;;;;;;10.46;64.59;101819.09;15814679;28;20048;-60
2022/04/30 03:46:40;;;;;;;1999.90;999.90;;;;;;;10.56;63.92;101814.16;15812229;28;20075;-60
2022/04/30 03:54:13;;;;;;;1999.90;999.90;;;;;;;10.45;64.08;101815.47;15812403;28;20046;-59
2022/04/30 04:01:46;;;;;;;1999.90;999.90;;;;;;;10.48;64.28;101814.84;15810451;28;20054;-60
2022/04/30 04:09:19;;;;;;;;;;;;;;;10.36;64.76;101815.34;15809674;28;20040;-60
2022/04/30 04:32:34;;;;;;;1999.90;999.90;;;;;;;10.83;64.31;101820.91;15808813;28;20519;-60
2022/04/30 04:40:09;;;;;;;1999.90;999.90;;;;;;;10.88;64.89;101812.44;15805526;28;20119;-59
2022/04/30 04:47:49;;;;;;;1999.90;999.90;;;;;;;11.01;64.17;101820.00;15806800;28;20048;-62
2022/04/30 04:55:22;;;;;;;1999.90;999.90;;;;;;;10.88;63.95;101830.03;15805067;28;20059;-62
2022/04/30 05:02:56;;;;;;;1999.90;999.90;;;;;;;10.83;64.99;101830.13;15804029;28;20125;-62
2022/04/30 05:10:29;;;;;;;1999.90;999.90;;;;;;;11.32;63.07;101836.16;15806841;28;20071;-60
2022/04/30 05:18:03;;;;;;;1999.90;999.90;;;;;;;11.75;62.27;101845.84;15806078;28;20040;-60
2022/04/30 05:25:40;;;;;;;1999.90;999.90;;;;;;;12.05;61.89;101846.31;15805441;28;20410;-62
2022/04/30 05:33:14;;;;;;;1999.90;999.90;;;;;;;12.45;60.96;101850.09;15804227;28;20040;-61
2022/04/30 05:40:46;;;;;;;1999.90;999.90;;;;;;;12.66;61.18;101856.81;15803658;28;20071;-61
2022/04/30 05:48:20;;;;;;;1999.90;999.90;;;;;;;12.96;60.90;101862.78;15804543;28;20473;-60
2022/04/30 05:55:52;;;;;;;;;;;;;;;13.53;59.35;101862.88;15802468;28;20580;-62
2022/04/30 06:03:26;;;;;;;1999.90;999.90;;;;;;;13.70;58.80;101868.53;15802047;28;19924;-62
2022/04/30 06:11:01;;;;;;;1999.90;999.90;;;;;;;13.44;59.79;101868.47;15802626;28;20040;-61
2022/04/30 06:18:34;;;;;;;1999.90;999.90;;;;;;;13.88;58.73;101877.00;15805657;28;20047;-61
2022/04/30 06:26:07;;;;;;;1999.90;999.90;;;;;;;13.99;57.01;101884.75;15803472;28;20056;-63
2022/04/30 06:33:41;;;;;;;1999.90;999.90;;;;;;;13.88;56.98;101877.81;15802186;28;20036;-63
2022/04/30 06:41:13;;;;;;;;;;;;;;;13.74;57.01;101861.09;15802029;28;20071;-64
2022/04/30 06:48:46;;;;;;;1999.90;999.90;;;;;;;14.46;56.08;101881.34;15801910;28;19926;-61
2022/04/30 07:04:11;;;;;;;1999.90;999.90;;;;;;;15.46;52.17;101890.19;15777179;28;20123;-62
2022/04/30 07:11:44;;;;;;;1999.90;999.90;;;;;;;15.92;50.18;101882.81;15818648;28;20048;-62
2022/04/30 07:19:18;;;;;;;1999.90;999.90;;;;;;;16.38;49.55;101897.91;15815772;28;20040;-61
2022/04/30 07:26:51;;;;;;;1999.90;999.90;;;;;;;16.89;48.84;101895.81;15811005;28;20040;-62
2022/04/30 07:34:24;;;;;;;1999.90;999.90;;;;;;;16.89;48.40;101893.81;15811550;28;20040;-60
2022/04/30 07:41:57;;;;;;;1999.90;999.90;;;;;;;17.15;48.19;101901.97;15809457;28;20079;-60
2022/04/30 07:49:31;;;;;;;1999.90;999.90;;;;;;;18.04;45.67;101913.44;15809251;28;20435;-62
2022/04/30 07:57:04;;;;;;;1999.90;999.90;;;;;;;18.18;44.60;101911.06;15809835;28;20124;-62
2022/04/30 08:04:38;;;;;;;1999.90;999.90;;;;;;;17.84;46.48;101909.59;15807703;28;20044;-60
2022/04/30 08:12:12;;;;;;;1999.90;999.90;;;;;;;18.47;44.08;101909.13;15807891;28;20097;-61
2022/04/30 08:19:45;;;;;;;1999.90;999.90;;;;;;;18.14;42.91;101914.97;15808035;28;20044;-62
2022/04/30 08:27:17;;;;;;;1999.90;999.90;;;;;;;18.08;43.85;101920.03;15807205;28;20446;-59
2022/04/30 08:34:51;;;;;;;1999.90;999.90;;;;;;;18.08;43.73;101922.03;15808223;28;20036;-58
2022/04/30 08:42:24;;;;;;;1999.90;999.90;;;;;;;19.59;42.88;101903.34;15807952;28;20044;-62
2022/04/30 08:50:02;;;;;;;1999.90;999.90;;;;;;;21.09;38.16;101898.16;15807763;28;20051;-60
2022/04/30 08:57:34;;;;;;;1999.90;999.90;;;;;;;21.37;39.23;101895.06;15807093;28;20117;-62
2022/04/30 09:05:14;;;;;;;1999.90;999.90;;;;;;;22.03;36.01;101908.72;15788362;28;20139;-60
2022/04/30 09:12:46;;;;;;;1999.90;999.90;;;;;;;23.07;35.74;101898.75;15804680;28;20086;-62
2022/04/30 09:20:20;;;;;;;1999.90;999.90;;;;;;;23.63;34.26;101900.50;15773820;28;20044;-63
2022/04/30 09:27:53;;;;;;;1999.90;999.90;;;;;;;24.33;32.25;101891.66;15802561;28;20298;-62
2022/04/30 09:43:17;;;;;;;1999.90;999.90;;;;;;;24.63;32.31;101888.53;15803784;28;20072;-61
2022/04/30 09:58:44;;;;;;;1999.90;999.90;;;;;;;25.24;30.91;101883.00;15801535;28;20051;-62
2022/04/30 10:06:19;;;;;;;1999.90;999.90;;;;;;;22.98;34.30;101881.97;15801665;28;20048;-62
2022/04/30 10:14:01;;;;;;;1999.90;999.90;;;;;;;24.21;32.90;101863.44;15802226;28;20052;-62
2022/04/30 10:21:35;;;;;;;1999.90;999.90;;;;;;;25.07;32.57;101861.75;15802028;28;20408;-62
2022/04/30 10:29:12;;;;;;;1999.90;999.90;;;;;;;25.86;31.29;101859.75;15801253;28;20046;-61
2022/04/30 10:36:54;;;;;;;1999.90;999.90;;;;;;;25.73;32.01;101859.34;15803219;28;20044;-61
2022/04/30 10:44:31;;;;;;;1999.90;999.90;;;;;;;27.22;30.24;101855.09;15796674;28;20117;-62
2022/04/30 10:52:06;;;;;;;1999.90;999.90;;;;;;;27.94;29.62;101846.69;15812430;28;20160;-61
2022/04/30 10:59:39;;;;;;;1999.90;999.90;;;;;;;27.04;28.27;101842.94;15814757;28;20047;-62
2022/04/30 11:07:14;;;;;;;1999.90;999.90;;;;;;;26.70;29.98;101829.22;15812260;28;20046;-61
2022/04/30 11:14:47;;;;;;;1999.90;999.90;;;;;;;26.57;29.53;101818.63;15813071;28;20055;-62
2022/04/30 11:22:20;;;;;;;1999.90;999.90;;;;;;;26.43;28.79;101814.63;15810019;28;20052;-61
2022/04/30 11:29:55;;;;;;;1999.90;999.90;;;;;;;25.67;28.63;101811.56;15799010;28;20052;-61
2022/04/30 11:37:38;;;;;;;1999.90;999.90;;;;;;;24.35;30.36;101805.69;15810977;28;20123;-61
2022/04/30 11:45:10;;;;;;;1999.90;999.90;;;;;;;25.51;32.87;101798.50;15792837;28;20123;-61
2022/04/30 11:52:45;;;;;;;1999.90;999.90;;;;;;;26.21;28.75;101787.31;15809166;28;20385;-61
2022/04/30 12:00:20;;;;;;;1999.90;999.90;;;;;;;28.26;26.92;101793.84;15810068;28;20044;-61
2022/04/30 12:08:01;;;;;;;1999.90;999.90;;;;;;;28.10;27.48;101778.03;15809949;28;20123;-62
2022/04/30 12:15:33;;;;;;;1999.90;999.90;;;;;;;28.29;25.50;101776.59;15808352;28;20062;-62
2022/04/30 12:30:58;;;;;;;1999.90;999.90;;;;;;;26.54;27.06;101757.31;15807799;28;20048;-61
2022/04/30 12:38:32;;;;;;;;;;;;;;;29.36;25.72;101751.94;15808308;28;20397;-61
2022/04/30 12:46:04;;;;;;;1999.90;999.90;;;;;;;32.20;22.75;101755.06;15808514;28;20018;-62
2022/04/30 12:53:38;;;;;;;1999.90;999.90;;;;;;;33.10;19.62;101748.09;15806147;28;20131;-62
2022/04/30 13:01:10;;;;;;;1999.90;999.90;;;;;;;32.96;19.58;101742.81;15805605;28;20071;-61
2022/04/30 13:16:34;;;;;;;1999.90;999.90;;;;;;;36.43;15.94;101731.91;15804220;28;20504;-62
2022/04/30 13:24:09;;;;;;;1999.90;999.90;;;;;;;31.21;19.72;101727.78;15803921;28;20058;-62
2022/04/30 13:31:42;;;;;;;1999.90;999.90;;;;;;;26.13;23.36;101709.31;15804421;28;20463;-62
2022/04/30 13:39:16;;;;;;;1999.90;999.90;;;;;;;26.34;25.21;101708.34;15793689;28;20044;-62
2022/04/30 13:46:48;;;;;;;1999.90;999.90;;;;;;;24.10;27.31;101691.50;15785324;28;20389;-62
2022/04/30 13:54:22;;;;;;;1999.90;999.90;;;;;;;23.81;29.43;101676.31;15802959;28;20409;-61
2022/04/30 14:01:54;;;;;;;1999.90;999.90;;;;;;;23.17;28.83;101676.78;15801692;28;20456;-62
2022/04/30 14:09:28;;;;;;;1999.90;999.90;;;;;;;23.46;26.50;101680.63;15801429;28;20044;-62
2022/04/30 14:17:01;;;;;;;1999.90;999.90;;;;;;;22.55;27.80;101673.81;15799917;28;20056;-61
2022/04/30 14:24:34;;;;;;;1999.90;999.90;;;;;;;22.92;30.32;101665.19;15802247;28;20044;-61
2022/04/30 14:32:07;;;;;;;1999.90;999.90;;;;;;;22.46;31.43;101670.47;15801676;28;20089;-62
2022/04/30 14:39:41;;;;;;;1999.90;999.90;;;;;;;22.39;30.46;101665.53;15801936;28;20067;-62
2022/04/30 14:47:13;;;;;;;1999.90;999.90;;;;;;;22.92;32.18;101650.97;15783318;28;20043;-62
2022/04/30 14:54:46;;;;;;;1999.90;999.90;;;;;;;23.10;30.70;101661.66;15800572;28;20048;-61
2022/04/30 15:02:20;;;;;;;1999.90;999.90;;;;;;;22.59;33.06;101651.91;15801129;28;20044;-61
2022/04/30 15:09:55;;;;;;;1999.90;999.90;;;;;;;22.53;30.26;101647.78;15801275;28;20068;-62
2022/04/30 15:17:27;;;;;;;1999.90;999.90;;;;;;;22.87;32.71;101639.97;15800247;28;20044;-62
2022/04/30 15:25:01;;;;;;;1999.90;999.90;;;;;;;23.31;27.67;101645.53;15805575;28;20040;-61
2022/04/30 15:32:33;;;;;;;1999.90;999.90;;;;;;;22.86;27.34;101626.94;15768453;28;20036;-61
2022/04/30 15:40:09;;;;;;;1999.90;999.90;;;;;;;22.82;27.51;101623.22;15804483;28;20044;-62
2022/04/30 15:55:32;;;;;;;1999.90;999.90;;;;;;;22.75;30.46;101624.00;15810534;28;20097;-62
2022/04/30 16:03:04;;;;;;;1999.90;999.90;;;;;;;22.73;30.79;101619.94;15808917;28;20048;-61
2022/04/30 16:10:38;;;;;;;1999.90;999.90;;;;;;;22.12;31.97;101616.53;15808944;28;20064;-61
2022/04/30 16:18:11;;;;;;;1999.90;999.90;;;;;;;22.31;31.28;101614.69;15807752;28;20063;-62
2022/04/30 16:25:45;;;;;;;1999.90;999.90;;;;;;;22.09;31.48;101605.13;15808055;28;20036;-62
2022/04/30 16:33:17;;;;;;;1999.90;999.90;;;;;;;21.95;33.78;101617.13;15807436;28;20047;-62
2022/04/30 16:40:51;;;;;;;1999.90;999.90;;;;;;;21.79;33.97;101611.69;15808123;28;20043;-62
2022/04/30 16:48:23;;;;;;;1999.90;999.90;;;;;;;22.03;34.59;101606.66;15808729;28;20093;-62
2022/04/30 17:03:47;;;;;;;1999.90;999.90;;;;;;;21.21;34.33;101605.63;15805505;28;20412;-62
2022/04/30 17:11:22;;;;;;;1999.90;999.90;;;;;;;20.77;35.71;101608.25;15805780;28;20043;-62
2022/04/30 17:18:56;;;;;;;1999.90;999.90;;;;;;;20.70;35.64;101604.09;15807205;28;20048;-61
2022/04/30 17:26:31;;;;;;;1999.90;999.90;;;;;;;20.62;36.88;101602.31;15791416;28;20044;-61
2022/04/30 17:41:57;;;;;;;1999.90;999.90;;;;;;;20.31;37.55;101608.25;15803778;28;20040;-62
2022/04/30 17:49:30;;;;;;;1999.90;999.90;;;;;;;19.97;37.87;101598.72;15804131;28;20082;-62
2022/04/30 17:57:12;;;;;;;1999.90;999.90;;;;;;;19.73;39.10;101605.56;15803126;28;20039;-61
2022/04/30 18:04:50;;;;;;;1999.90;999.90;;;;;;;19.35;39.26;101618.47;15803765;28;20039;-61
2022/04/30 18:12:29;;;;;;;1999.90;999.90;;;;;;;19.24;39.78;101632.41;15786341;28;20044;-61
2022/04/30 18:20:20;;;;;;;1999.90;999.90;;;;;;;18.96;40.78;101632.56;15793143;28;20123;-60
2022/04/30 18:28:12;;;;;;;1999.90;999.90;;;;;;;18.65;41.20;101635.44;15801178;28;20076;-62
2022/04/30 18:35:46;;;;;;;1999.90;999.90;;;;;;;18.44;42.31;101653.50;15801430;28;20523;-61
2022/04/30 18:43:33;;;;;;;1999.90;999.90;;;;;;;18.27;42.92;101658.66;15802563;28;20052;-59
2022/04/30 18:51:21;;;;;;;1999.90;999.90;;;;;;;17.92;43.78;101666.97;15813628;28;20040;-60
2022/04/30 19:07:03;;;;;;;1999.90;999.90;;;;;;;17.41;44.44;101673.13;15830215;28;20044;-61
2022/04/30 19:14:37;;;;;;;1999.90;999.90;;;;;;;17.14;45.33;101676.72;15824198;28;20054;-62
2022/04/30 19:22:11;;;;;;;1999.90;999.90;;;;;;;16.72;45.49;101685.41;15817170;28;20085;-61
2022/04/30 19:29:45;;;;;;;1999.90;999.90;;;;;;;16.67;45.99;101686.44;15819432;28;20040;-61
2022/04/30 19:37:18;;;;;;;1999.90;999.90;;;;;;;16.57;46.25;101680.41;15816833;28;20059;-60
2022/04/30 19:44:53;;;;;;;1999.90;999.90;;;;;;;16.16;47.63;101685.88;15817172;28;20545;-62
2022/04/30 19:52:42;;;;;;;1999.90;999.90;;;;;;;16.16;48.21;101697.16;15813583;28;20044;-61
2022/04/30 20:00:18;;;;;;;1999.90;999.90;;;;;;;16.09;48.89;101693.25;15805095;28;20496;-62
2022/04/30 20:07:53;;;;;;;1999.90;999.90;;;;;;;15.76;49.81;101691.25;15791018;28;20452;-62
2022/04/30 20:23:39;;;;;;;1999.90;999.90;;;;;;;15.63;50.87;101699.94;15766439;28;20535;-60
2022/04/30 20:39:28;;;;;;;1999.90;999.90;;;;;;;15.21;52.60;101700.72;15807053;28;20038;-58
2022/04/30 20:47:21;;;;;;;1999.90;999.90;;;;;;;15.14;52.93;101710.88;15807885;28;20055;-54
2022/04/30 20:54:55;;;;;;;1999.90;999.90;;;;;;;14.96;53.61;101710.16;15807608;28;20044;-61
2022/04/30 21:02:29;;;;;;;1999.90;999.90;;;;;;;14.71;54.66;101715.56;15803526;28;20481;-60
2022/04/30 21:10:06;;;;;;;1999.90;999.90;;;;;;;14.55;55.26;101725.69;15805669;28;20126;-59
2022/04/30 21:17:40;;;;;;;1999.90;999.90;;;;;;;14.46;55.54;101729.69;15791272;28;20051;-62
2022/04/30 21:25:16;;;;;;;1999.90;999.90;;;;;;;14.26;55.97;101725.56;15795786;22;20045;-58
2022/04/30 21:32:50;;;;;;;1999.90;999.90;;;;;;;14.05;56.91;101726.28;15718113;28;20416;-56
2022/04/30 21:48:10;;;;;;;1999.90;999.90;;;;;;;13.95;57.89;101717.38;15769849;28;20196;-57
2022/04/30 22:03:38;;;;;;;1999.90;999.90;;;;;;;13.56;59.09;101722.03;15777488;28;20040;-60
2022/04/30 22:11:10;;;;;;;1999.90;999.90;;;;;;;13.62;58.79;101726.28;15780319;28;20079;-56
2022/04/30 22:18:45;;;;;;;1999.90;999.90;;;;;;;13.39;60.02;101728.41;15780342;28;20162;-53
2022/04/30 22:26:17;;;;;;;1999.90;999.90;;;;;;;13.49;59.36;101716.88;15776573;28;20432;-55
2022/04/30 22:33:50;;;;;;;1999.90;999.90;;;;;;;13.50;59.36;101720.50;15779172;28;20108;-58
2022/04/30 22:49:16;;;;;;;1999.90;999.90;;;;;;;13.42;59.44;101713.75;15790962;28;20047;-59
2022/04/30 22:56:48;;;;;;;1999.90;999.90;;;;;;;13.16;60.10;101721.25;15809218;28;20048;-57
2022/04/30 23:04:22;;;;;;;1999.90;999.90;;;;;;;13.01;60.90;101720.56;15789992;28;20054;-56
2022/04/30 23:11:54;;;;;;;;;;;;;;;13.01;60.75;101720.56;15809080;28;20064;-55
2022/04/30 23:19:27;;;;;;;1999.90;999.90;;;;;;;12.96;60.57;101720.72;15807285;28;19927;-57
2022/04/30 23:27:03;;;;;;;1999.90;999.90;;;;;;;12.49;62.33;101716.72;15788779;28;20168;-56
2022/04/30 23:34:37;;;;;;;1999.90;999.90;;;;;;;12.53;62.52;101720.53;15788478;28;20408;-52
2022/04/30 23:42:10;;;;;;;1999.90;999.90;;;;;;;12.58;62.13;101720.41;15806511;28;20040;-55
2022/04/30 23:49:43;;;;;;;1999.90;999.90;;;;;;;12.43;62.87;101704.03;15787040;28;20036;-57
2022/04/30 23:57:15;;;;;;;;;;;;;;;12.37;62.53;101714.53;15806630;28;20105;-56
